sensor_id;sensor_type;location;lat;lon;timestamp;P1;durP1;ratioP1;P2;durP2;ratioP2
26474;SDS011;14161;52.270;10.334;2023-02-02T04:02:30;8.95;;;2.42;;
26474;SDS011;14161;52.270;10.334;2023-02-02T04:04:56;15.10;;;2.70;;
26474;SDS011;14161;52.270;10.334;2023-02-02T04:07:21;24.45;;;3.78;;
26474;SDS011;14161;52.270;10.334;2023-02-02T04:09:47;14.95;;;2.55;;
26474;SDS011;14161;52.270;10.334;2023-02-02T04:12:12;20.17;;;3.20;;
26474;SDS011;14161;52.270;10.334;2023-02-02T04:14:38;18.73;;;3.10;;
26474;SDS011;14161;52.270;10.334;2023-02-02T04:17:03;22.33;;;3.40;;
26474;SDS011;14161;52.270;10.334;2023-02-02T04:19:29;24.30;;;3.75;;
26474;SDS011;14161;52.270;10.334;2023-02-02T04:21:54;21.98;;;3.50;;
26474;SDS011;14161;52.270;10.334;2023-02-02T04:24:20;19.95;;;3.40;;
26474;SDS011;14161;52.270;10.334;2023-02-02T04:26:45;17.77;;;3.30;;
26474;SDS011;14161;52.270;10.334;2023-02-02T04:29:11;14.50;;;2.33;;
26474;SDS011;14161;52.270;10.334;2023-02-02T04:31:36;14.32;;;2.65;;
26474;SDS011;14161;52.270;10.334;2023-02-02T04:34:02;17.38;;;3.58;;
26474;SDS011;14161;52.270;10.334;2023-02-02T04:36:27;19.50;;;3.20;;
26474;SDS011;14161;52.270;10.334;2023-02-02T04:38:53;31.00;;;3.80;;
26474;SDS011;14161;52.270;10.334;2023-02-02T04:41:19;19.50;;;2.75;;
26474;SDS011;14161;52.270;10.334;2023-02-02T04:43:45;22.00;;;3.08;;
26474;SDS011;14161;52.270;10.334;2023-02-02T04:46:11;13.93;;;2.63;;
26474;SDS011;14161;52.270;10.334;2023-02-02T04:48:37;20.77;;;3.50;;
26474;SDS011;14161;52.270;10.334;2023-02-02T04:51:04;21.65;;;3.75;;
26474;SDS011;14161;52.270;10.334;2023-02-02T04:53:30;16.05;;;3.22;;
26474;SDS011;14161;52.270;10.334;2023-02-02T04:55:56;17.73;;;3.20;;
26474;SDS011;14161;52.270;10.334;2023-02-02T04:58:22;16.55;;;3.03;;
26474;SDS011;14161;52.270;10.334;2023-02-02T05:00:48;18.25;;;3.20;;
26474;SDS011;14161;52.270;10.334;2023-02-02T05:03:14;19.65;;;3.17;;
26474;SDS011;14161;52.270;10.334;2023-02-02T05:05:39;15.82;;;2.92;;
26474;SDS011;14161;52.270;10.334;2023-02-02T05:08:05;13.75;;;3.15;;
26474;SDS011;14161;52.270;10.334;2023-02-02T05:10:32;17.25;;;3.25;;
26474;SDS011;14161;52.270;10.334;2023-02-02T05:12:57;16.95;;;3.45;;
26474;SDS011;14161;52.270;10.334;2023-02-02T05:15:23;16.17;;;2.85;;
26474;SDS011;14161;52.270;10.334;2023-02-02T05:17:48;12.90;;;2.45;;
26474;SDS011;14161;52.270;10.334;2023-02-02T05:20:14;17.15;;;3.10;;
26474;SDS011;14161;52.270;10.334;2023-02-02T05:22:40;15.55;;;2.95;;
26474;SDS011;14161;52.270;10.334;2023-02-02T05:25:06;18.73;;;3.30;;
26474;SDS011;14161;52.270;10.334;2023-02-02T05:27:32;19.75;;;3.58;;
26474;SDS011;14161;52.270;10.334;2023-02-02T05:29:58;33.78;;;4.43;;
26474;SDS011;14161;52.270;10.334;2023-02-02T05:32:24;17.25;;;3.35;;
26474;SDS011;14161;52.270;10.334;2023-02-02T05:34:49;25.85;;;4.43;;
26474;SDS011;14161;52.270;10.334;2023-02-02T05:37:14;29.38;;;4.28;;
26474;SDS011;14161;52.270;10.334;2023-02-02T05:39:40;12.98;;;3.17;;
26474;SDS011;14161;52.270;10.334;2023-02-02T05:42:05;20.45;;;3.03;;
26474;SDS011;14161;52.270;10.334;2023-02-02T05:44:31;30.33;;;4.40;;
26474;SDS011;14161;52.270;10.334;2023-02-02T05:46:56;24.67;;;3.75;;
26474;SDS011;14161;52.270;10.334;2023-02-02T05:49:22;27.27;;;5.35;;
26474;SDS011;14161;52.270;10.334;2023-02-02T05:51:49;22.67;;;3.38;;
26474;SDS011;14161;52.270;10.334;2023-02-02T05:54:18;25.55;;;4.10;;
26474;SDS011;14161;52.270;10.334;2023-02-02T05:56:48;14.55;;;3.13;;
26474;SDS011;14161;52.270;10.334;2023-02-02T05:59:14;22.75;;;3.58;;
26474;SDS011;14161;52.270;10.334;2023-02-02T06:01:41;22.88;;;3.90;;
26474;SDS011;14161;52.270;10.334;2023-02-02T06:04:07;29.35;;;4.43;;
26474;SDS011;14161;52.270;10.334;2023-02-02T06:06:33;17.95;;;3.30;;
26474;SDS011;14161;52.270;10.334;2023-02-02T06:08:59;19.63;;;3.85;;
26474;SDS011;14161;52.270;10.334;2023-02-02T06:11:25;22.60;;;3.50;;
26474;SDS011;14161;52.270;10.334;2023-02-02T06:13:51;24.63;;;4.03;;
26474;SDS011;14161;52.270;10.334;2023-02-02T06:16:16;24.13;;;4.10;;
26474;SDS011;14161;52.270;10.334;2023-02-02T06:18:42;21.33;;;3.53;;
26474;SDS011;14161;52.270;10.334;2023-02-02T06:21:07;21.13;;;3.38;;
26474;SDS011;14161;52.270;10.334;2023-02-02T06:23:34;14.73;;;2.53;;
26474;SDS011;14161;52.270;10.334;2023-02-02T06:25:59;25.95;;;3.97;;
26474;SDS011;14161;52.270;10.334;2023-02-02T06:28:25;26.50;;;3.42;;
26474;SDS011;14161;52.270;10.334;2023-02-02T06:30:51;17.55;;;3.08;;
26474;SDS011;14161;52.270;10.334;2023-02-02T06:33:16;13.25;;;2.40;;
26474;SDS011;14161;52.270;10.334;2023-02-02T06:35:41;25.45;;;4.07;;
26474;SDS011;14161;52.270;10.334;2023-02-02T06:38:07;14.82;;;2.72;;
26474;SDS011;14161;52.270;10.334;2023-02-02T06:40:32;16.95;;;2.13;;
26474;SDS011;14161;52.270;10.334;2023-02-02T06:42:59;23.55;;;3.63;;
26474;SDS011;14161;52.270;10.334;2023-02-02T06:45:26;20.80;;;3.78;;
26474;SDS011;14161;52.270;10.334;2023-02-02T06:47:52;16.27;;;3.00;;
26474;SDS011;14161;52.270;10.334;2023-02-02T06:50:18;36.97;;;5.32;;
26474;SDS011;14161;52.270;10.334;2023-02-02T06:52:49;34.95;;;8.88;;
26474;SDS011;14161;52.270;10.334;2023-02-02T06:55:15;15.50;;;4.72;;
26474;SDS011;14161;52.270;10.334;2023-02-02T06:57:41;21.63;;;5.00;;
26474;SDS011;14161;52.270;10.334;2023-02-02T09:32:48;25.05;;;4.10;;
26474;SDS011;14161;52.270;10.334;2023-02-02T09:35:17;20.13;;;3.88;;
26474;SDS011;14161;52.270;10.334;2023-02-02T09:37:46;18.13;;;3.63;;
26474;SDS011;14161;52.270;10.334;2023-02-02T09:40:15;10.60;;;2.60;;
26474;SDS011;14161;52.270;10.334;2023-02-02T09:49:34;17.42;;;2.47;;
26474;SDS011;14161;52.270;10.334;2023-02-02T09:55:59;15.23;;;2.85;;
26474;SDS011;14161;52.270;10.334;2023-02-02T10:02:16;11.43;;;2.58;;
26474;SDS011;14161;52.270;10.334;2023-02-02T10:05:11;13.20;;;2.78;;
26474;SDS011;14161;52.270;10.334;2023-02-02T10:08:04;19.73;;;3.38;;
26474;SDS011;14161;52.270;10.334;2023-02-02T10:10:38;17.38;;;2.90;;
26474;SDS011;14161;52.270;10.334;2023-02-02T10:13:09;16.38;;;3.58;;
26474;SDS011;14161;52.270;10.334;2023-02-02T10:15:52;11.60;;;3.05;;
26474;SDS011;14161;52.270;10.334;2023-02-02T10:18:45;15.10;;;2.60;;
26474;SDS011;14161;52.270;10.334;2023-02-02T10:23:56;13.27;;;3.05;;
26474;SDS011;14161;52.270;10.334;2023-02-02T10:26:41;21.00;;;3.42;;
26474;SDS011;14161;52.270;10.334;2023-02-02T10:29:28;15.57;;;3.42;;
26474;SDS011;14161;52.270;10.334;2023-02-02T10:32:47;10.90;;;2.70;;
26474;SDS011;14161;52.270;10.334;2023-02-02T10:38:13;13.90;;;2.90;;
26474;SDS011;14161;52.270;10.334;2023-02-02T10:41:19;23.30;;;4.10;;
26474;SDS011;14161;52.270;10.334;2023-02-02T10:44:46;14.70;;;3.53;;
26474;SDS011;14161;52.270;10.334;2023-02-02T10:48:01;13.20;;;3.00;;
26474;SDS011;14161;52.270;10.334;2023-02-02T10:50:27;11.50;;;2.30;;
26474;SDS011;14161;52.270;10.334;2023-02-02T10:52:59;11.23;;;2.78;;
26474;SDS011;14161;52.270;10.334;2023-02-02T10:58:11;13.48;;;3.03;;
26474;SDS011;14161;52.270;10.334;2023-02-02T11:00:40;13.13;;;2.25;;
26474;SDS011;14161;52.270;10.334;2023-02-02T11:03:09;10.27;;;2.42;;
26474;SDS011;14161;52.270;10.334;2023-02-02T11:05:36;10.55;;;2.33;;
26474;SDS011;14161;52.270;10.334;2023-02-02T11:08:23;16.17;;;3.15;;
26474;SDS011;14161;52.270;10.334;2023-02-02T11:10:53;7.93;;;1.98;;
26474;SDS011;14161;52.270;10.334;2023-02-02T11:16:16;8.15;;;1.92;;
26474;SDS011;14161;52.270;10.334;2023-02-02T11:18:43;9.23;;;2.30;;
26474;SDS011;14161;52.270;10.334;2023-02-02T11:21:23;16.35;;;3.28;;
26474;SDS011;14161;52.270;10.334;2023-02-02T11:23:52;12.35;;;2.90;;
26474;SDS011;14161;52.270;10.334;2023-02-02T11:26:21;16.33;;;2.40;;
26474;SDS011;14161;52.270;10.334;2023-02-02T11:28:48;11.80;;;2.33;;
26474;SDS011;14161;52.270;10.334;2023-02-02T11:31:35;11.10;;;2.38;;
26474;SDS011;14161;52.270;10.334;2023-02-02T11:34:19;8.68;;;1.75;;
26474;SDS011;14161;52.270;10.334;2023-02-02T11:36:57;17.10;;;2.95;;
26474;SDS011;14161;52.270;10.334;2023-02-02T11:39:24;9.30;;;1.77;;
26474;SDS011;14161;52.270;10.334;2023-02-02T11:42:36;11.20;;;2.58;;
26474;SDS011;14161;52.270;10.334;2023-02-02T11:45:03;10.18;;;2.78;;
26474;SDS011;14161;52.270;10.334;2023-02-02T11:47:31;14.15;;;2.65;;
26474;SDS011;14161;52.270;10.334;2023-02-02T11:50:01;12.77;;;2.50;;
26474;SDS011;14161;52.270;10.334;2023-02-02T11:52:34;11.63;;;2.22;;
26474;SDS011;14161;52.270;10.334;2023-02-02T11:55:08;12.88;;;2.67;;
26474;SDS011;14161;52.270;10.334;2023-02-02T12:00:49;14.68;;;2.22;;
26474;SDS011;14161;52.270;10.334;2023-02-02T12:03:27;17.83;;;2.30;;
26474;SDS011;14161;52.270;10.334;2023-02-02T12:06:20;13.13;;;2.33;;
26474;SDS011;14161;52.270;10.334;2023-02-02T12:09:10;21.45;;;3.22;;
26474;SDS011;14161;52.270;10.334;2023-02-02T12:17:35;9.35;;;1.80;;
26474;SDS011;14161;52.270;10.334;2023-02-02T12:26:04;12.40;;;1.75;;
26474;SDS011;14161;52.270;10.334;2023-02-02T12:34:27;10.60;;;2.00;;
26474;SDS011;14161;52.270;10.334;2023-02-02T12:42:32;4.57;;;1.63;;
26474;SDS011;14161;52.270;10.334;2023-02-02T12:54:39;14.82;;;2.75;;
26474;SDS011;14161;52.270;10.334;2023-02-02T12:56:59;10.05;;;2.00;;
26474;SDS011;14161;52.270;10.334;2023-02-02T13:02:29;8.77;;;1.67;;
26474;SDS011;14161;52.270;10.334;2023-02-02T13:10:38;7.97;;;1.38;;
26474;SDS011;14161;52.270;10.334;2023-02-02T13:13:10;11.45;;;2.13;;
26474;SDS011;14161;52.270;10.334;2023-02-02T13:15:39;6.63;;;1.45;;
26474;SDS011;14161;52.270;10.334;2023-02-02T13:18:22;6.75;;;1.70;;
26474;SDS011;14161;52.270;10.334;2023-02-02T13:20:59;10.18;;;1.95;;
26474;SDS011;14161;52.270;10.334;2023-02-02T13:23:27;11.35;;;2.25;;
26474;SDS011;14161;52.270;10.334;2023-02-02T13:25:59;8.95;;;2.03;;
26474;SDS011;14161;52.270;10.334;2023-02-02T13:28:31;6.63;;;1.70;;
26474;SDS011;14161;52.270;10.334;2023-02-02T13:31:01;7.35;;;2.05;;
26474;SDS011;14161;52.270;10.334;2023-02-02T13:33:31;10.23;;;2.22;;
26474;SDS011;14161;52.270;10.334;2023-02-02T13:36:09;11.70;;;2.25;;
26474;SDS011;14161;52.270;10.334;2023-02-02T13:38:52;12.40;;;2.22;;
26474;SDS011;14161;52.270;10.334;2023-02-02T13:41:19;11.88;;;2.58;;
26474;SDS011;14161;52.270;10.334;2023-02-02T13:46:14;13.63;;;2.13;;
26474;SDS011;14161;52.270;10.334;2023-02-02T14:02:37;12.88;;;2.70;;
26474;SDS011;14161;52.270;10.334;2023-02-02T14:05:06;10.32;;;2.47;;
26474;SDS011;14161;52.270;10.334;2023-02-02T14:07:43;15.85;;;3.20;;
26474;SDS011;14161;52.270;10.334;2023-02-02T14:12:50;7.97;;;2.35;;
26474;SDS011;14161;52.270;10.334;2023-02-02T14:15:16;11.95;;;2.28;;
26474;SDS011;14161;52.270;10.334;2023-02-02T14:20:37;9.95;;;2.05;;
26474;SDS011;14161;52.270;10.334;2023-02-02T14:34:27;11.82;;;2.58;;
26474;SDS011;14161;52.270;10.334;2023-02-02T14:45:37;11.18;;;2.85;;
26474;SDS011;14161;52.270;10.334;2023-02-02T14:48:09;15.15;;;2.13;;
26474;SDS011;14161;52.270;10.334;2023-02-02T14:50:40;9.35;;;2.10;;
26474;SDS011;14161;52.270;10.334;2023-02-02T14:58:29;11.35;;;2.60;;
26474;SDS011;14161;52.270;10.334;2023-02-02T15:14:24;9.63;;;2.58;;
26474;SDS011;14161;52.270;10.334;2023-02-02T15:16:54;10.55;;;2.17;;
26474;SDS011;14161;52.270;10.334;2023-02-02T15:19:32;13.32;;;2.95;;
26474;SDS011;14161;52.270;10.334;2023-02-02T15:22:20;7.22;;;2.15;;
26474;SDS011;14161;52.270;10.334;2023-02-02T15:24:51;9.90;;;2.67;;
26474;SDS011;14161;52.270;10.334;2023-02-02T15:27:18;10.07;;;2.38;;
26474;SDS011;14161;52.270;10.334;2023-02-02T15:29:48;11.05;;;2.15;;
26474;SDS011;14161;52.270;10.334;2023-02-02T15:32:17;11.05;;;2.45;;
26474;SDS011;14161;52.270;10.334;2023-02-02T15:34:49;9.27;;;2.40;;
26474;SDS011;14161;52.270;10.334;2023-02-02T15:37:20;9.35;;;1.92;;
26474;SDS011;14161;52.270;10.334;2023-02-02T15:39:49;10.35;;;2.78;;
26474;SDS011;14161;52.270;10.334;2023-02-02T15:42:18;9.45;;;2.13;;
26474;SDS011;14161;52.270;10.334;2023-02-02T15:45:04;7.53;;;2.00;;
26474;SDS011;14161;52.270;10.334;2023-02-02T15:47:35;5.25;;;1.85;;
26474;SDS011;14161;52.270;10.334;2023-02-02T15:50:03;10.60;;;2.30;;
26474;SDS011;14161;52.270;10.334;2023-02-02T15:52:46;9.13;;;2.25;;
26474;SDS011;14161;52.270;10.334;2023-02-02T16:00:21;12.18;;;2.00;;
26474;SDS011;14161;52.270;10.334;2023-02-02T16:02:48;12.65;;;2.70;;
26474;SDS011;14161;52.270;10.334;2023-02-02T16:07:56;11.80;;;2.80;;
26474;SDS011;14161;52.270;10.334;2023-02-02T16:10:23;8.60;;;1.90;;
26474;SDS011;14161;52.270;10.334;2023-02-02T16:12:49;10.23;;;2.00;;
26474;SDS011;14161;52.270;10.334;2023-02-02T16:15:19;9.95;;;2.08;;
26474;SDS011;14161;52.270;10.334;2023-02-02T16:17:57;5.88;;;1.50;;
26474;SDS011;14161;52.270;10.334;2023-02-02T16:20:33;6.22;;;2.00;;
26474;SDS011;14161;52.270;10.334;2023-02-02T16:23:00;10.23;;;2.00;;
26474;SDS011;14161;52.270;10.334;2023-02-02T16:25:29;4.28;;;1.50;;
26474;SDS011;14161;52.270;10.334;2023-02-02T16:27:56;7.72;;;1.58;;
26474;SDS011;14161;52.270;10.334;2023-02-02T16:32:51;7.07;;;2.00;;
26474;SDS011;14161;52.270;10.334;2023-02-02T16:35:28;5.18;;;1.92;;
26474;SDS011;14161;52.270;10.334;2023-02-02T16:43:03;6.63;;;1.83;;
26474;SDS011;14161;52.270;10.334;2023-02-02T16:45:31;7.03;;;1.88;;
26474;SDS011;14161;52.270;10.334;2023-02-02T16:50:44;3.97;;;1.55;;
26474;SDS011;14161;52.270;10.334;2023-02-02T16:53:19;6.10;;;1.60;;
26474;SDS011;14161;52.270;10.334;2023-02-02T16:55:47;5.70;;;1.50;;
26474;SDS011;14161;52.270;10.334;2023-02-02T16:58:19;9.60;;;1.88;;
26474;SDS011;14161;52.270;10.334;2023-02-02T17:00:56;6.83;;;2.40;;
26474;SDS011;14161;52.270;10.334;2023-02-02T17:03:29;7.22;;;2.65;;
26474;SDS011;14161;52.270;10.334;2023-02-02T17:05:57;10.32;;;2.47;;
26474;SDS011;14161;52.270;10.334;2023-02-02T17:08:30;5.13;;;1.95;;
26474;SDS011;14161;52.270;10.334;2023-02-02T17:11:04;7.63;;;1.92;;
26474;SDS011;14161;52.270;10.334;2023-02-02T17:13:35;9.00;;;2.20;;
26474;SDS011;14161;52.270;10.334;2023-02-02T17:16:02;12.50;;;2.50;;
26474;SDS011;14161;52.270;10.334;2023-02-02T17:18:27;8.20;;;2.20;;
26474;SDS011;14161;52.270;10.334;2023-02-02T17:20:53;11.18;;;2.30;;
26474;SDS011;14161;52.270;10.334;2023-02-02T17:23:23;13.90;;;3.05;;
26474;SDS011;14161;52.270;10.334;2023-02-02T17:25:49;8.55;;;2.67;;
26474;SDS011;14161;52.270;10.334;2023-02-02T17:28:17;10.52;;;2.50;;
26474;SDS011;14161;52.270;10.334;2023-02-02T17:30:44;11.98;;;2.50;;
26474;SDS011;14161;52.270;10.334;2023-02-02T17:33:12;8.57;;;2.47;;
26474;SDS011;14161;52.270;10.334;2023-02-02T17:35:42;6.80;;;2.10;;
26474;SDS011;14161;52.270;10.334;2023-02-02T17:38:08;10.52;;;1.95;;
26474;SDS011;14161;52.270;10.334;2023-02-02T17:40:33;5.70;;;1.80;;
26474;SDS011;14161;52.270;10.334;2023-02-02T17:42:59;12.35;;;2.42;;
26474;SDS011;14161;52.270;10.334;2023-02-02T17:47:53;6.50;;;1.92;;
26474;SDS011;14161;52.270;10.334;2023-02-02T17:50:19;10.20;;;2.80;;
26474;SDS011;14161;52.270;10.334;2023-02-02T17:52:45;8.43;;;2.70;;
26474;SDS011;14161;52.270;10.334;2023-02-02T17:55:16;4.20;;;1.88;;
26474;SDS011;14161;52.270;10.334;2023-02-02T17:57:54;7.65;;;2.42;;
26474;SDS011;14161;52.270;10.334;2023-02-02T18:00:21;8.05;;;2.22;;
26474;SDS011;14161;52.270;10.334;2023-02-02T18:02:48;9.23;;;2.63;;
26474;SDS011;14161;52.270;10.334;2023-02-02T18:05:14;6.75;;;2.05;;
26474;SDS011;14161;52.270;10.334;2023-02-02T18:07:41;13.40;;;2.65;;
26474;SDS011;14161;52.270;10.334;2023-02-02T18:10:08;7.32;;;2.03;;
26474;SDS011;14161;52.270;10.334;2023-02-02T18:15:23;11.40;;;2.55;;
26474;SDS011;14161;52.270;10.334;2023-02-02T18:17:49;5.78;;;1.70;;
26474;SDS011;14161;52.270;10.334;2023-02-02T18:20:18;7.50;;;2.00;;
26474;SDS011;14161;52.270;10.334;2023-02-02T18:22:44;5.85;;;2.10;;
26474;SDS011;14161;52.270;10.334;2023-02-02T18:25:12;7.40;;;1.98;;
26474;SDS011;14161;52.270;10.334;2023-02-02T18:27:38;4.32;;;1.50;;
26474;SDS011;14161;52.270;10.334;2023-02-02T18:30:04;7.68;;;2.17;;
26474;SDS011;14161;52.270;10.334;2023-02-02T18:32:34;5.43;;;1.67;;
26474;SDS011;14161;52.270;10.334;2023-02-02T18:35:01;8.95;;;2.10;;
26474;SDS011;14161;52.270;10.334;2023-02-02T18:37:26;6.10;;;1.67;;
26474;SDS011;14161;52.270;10.334;2023-02-02T18:39:52;7.15;;;2.20;;
26474;SDS011;14161;52.270;10.334;2023-02-02T18:42:18;8.38;;;2.17;;
26474;SDS011;14161;52.270;10.334;2023-02-02T18:44:44;4.28;;;1.70;;
26474;SDS011;14161;52.270;10.334;2023-02-02T18:47:09;4.72;;;1.83;;
26474;SDS011;14161;52.270;10.334;2023-02-02T18:49:35;6.35;;;1.92;;
26474;SDS011;14161;52.270;10.334;2023-02-02T18:52:00;9.80;;;1.88;;
26474;SDS011;14161;52.270;10.334;2023-02-02T18:54:26;5.63;;;2.28;;
26474;SDS011;14161;52.270;10.334;2023-02-02T18:56:52;6.45;;;2.10;;
26474;SDS011;14161;52.270;10.334;2023-02-02T18:59:18;5.45;;;1.80;;
26474;SDS011;14161;52.270;10.334;2023-02-02T19:01:43;4.85;;;1.73;;
26474;SDS011;14161;52.270;10.334;2023-02-02T19:04:09;4.75;;;1.42;;
26474;SDS011;14161;52.270;10.334;2023-02-02T19:06:34;6.45;;;1.85;;
26474;SDS011;14161;52.270;10.334;2023-02-02T19:09:18;3.97;;;1.40;;
26474;SDS011;14161;52.270;10.334;2023-02-02T19:11:46;9.93;;;1.70;;
26474;SDS011;14161;52.270;10.334;2023-02-02T19:14:19;3.67;;;1.63;;
26474;SDS011;14161;52.270;10.334;2023-02-02T19:16:51;4.95;;;1.42;;
26474;SDS011;14161;52.270;10.334;2023-02-02T19:21:58;3.38;;;1.30;;
26474;SDS011;14161;52.270;10.334;2023-02-02T19:24:38;5.68;;;1.60;;
26474;SDS011;14161;52.270;10.334;2023-02-02T19:27:26;6.65;;;1.70;;
26474;SDS011;14161;52.270;10.334;2023-02-02T19:29:57;5.70;;;2.17;;
26474;SDS011;14161;52.270;10.334;2023-02-02T19:32:27;6.03;;;2.13;;
26474;SDS011;14161;52.270;10.334;2023-02-02T19:34:56;4.18;;;1.48;;
26474;SDS011;14161;52.270;10.334;2023-02-02T19:37:29;7.07;;;1.83;;
26474;SDS011;14161;52.270;10.334;2023-02-02T19:40:01;6.13;;;1.92;;
26474;SDS011;14161;52.270;10.334;2023-02-02T19:42:42;3.03;;;1.20;;
26474;SDS011;14161;52.270;10.334;2023-02-02T19:45:15;4.07;;;1.60;;
26474;SDS011;14161;52.270;10.334;2023-02-02T19:47:45;5.72;;;1.50;;
26474;SDS011;14161;52.270;10.334;2023-02-02T19:50:12;9.55;;;2.63;;
26474;SDS011;14161;52.270;10.334;2023-02-02T19:52:39;8.07;;;2.08;;
26474;SDS011;14161;52.270;10.334;2023-02-02T19:55:25;3.97;;;1.60;;
26474;SDS011;14161;52.270;10.334;2023-02-02T19:57:56;7.10;;;1.80;;
26474;SDS011;14161;52.270;10.334;2023-02-02T20:00:28;8.80;;;1.95;;
26474;SDS011;14161;52.270;10.334;2023-02-02T20:03:01;4.63;;;1.42;;
26474;SDS011;14161;52.270;10.334;2023-02-02T20:05:42;4.32;;;1.80;;
26474;SDS011;14161;52.270;10.334;2023-02-02T20:10:57;3.95;;;1.38;;
26474;SDS011;14161;52.270;10.334;2023-02-02T20:13:32;6.75;;;2.40;;
26474;SDS011;14161;52.270;10.334;2023-02-02T20:16:00;6.47;;;2.10;;
26474;SDS011;14161;52.270;10.334;2023-02-02T20:18:26;8.50;;;2.53;;
26474;SDS011;14161;52.270;10.334;2023-02-02T20:20:58;5.40;;;1.95;;
26474;SDS011;14161;52.270;10.334;2023-02-02T20:25:55;6.13;;;2.60;;
26474;SDS011;14161;52.270;10.334;2023-02-02T20:28:37;4.90;;;2.10;;
26474;SDS011;14161;52.270;10.334;2023-02-02T20:31:06;4.28;;;1.83;;
26474;SDS011;14161;52.270;10.334;2023-02-02T20:33:32;2.70;;;1.70;;
26474;SDS011;14161;52.270;10.334;2023-02-02T20:35:58;3.47;;;2.25;;
26474;SDS011;14161;52.270;10.334;2023-02-02T20:38:25;3.45;;;1.92;;
26474;SDS011;14161;52.270;10.334;2023-02-02T20:40:52;2.67;;;1.80;;
26474;SDS011;14161;52.270;10.334;2023-02-02T20:43:19;3.50;;;1.50;;
26474;SDS011;14161;52.270;10.334;2023-02-02T20:45:45;4.05;;;1.83;;
26474;SDS011;14161;52.270;10.334;2023-02-02T20:48:10;2.28;;;1.65;;
26474;SDS011;14161;52.270;10.334;2023-02-02T20:50:37;3.08;;;1.75;;
26474;SDS011;14161;52.270;10.334;2023-02-02T20:53:02;3.55;;;1.60;;
26474;SDS011;14161;52.270;10.334;2023-02-02T20:55:28;5.50;;;1.65;;
26474;SDS011;14161;52.270;10.334;2023-02-02T20:57:54;2.70;;;1.67;;
26474;SDS011;14161;52.270;10.334;2023-02-02T21:00:19;2.05;;;1.20;;
26474;SDS011;14161;52.270;10.334;2023-02-02T21:02:47;1.83;;;1.52;;
